sensor_id;sensor_type;location;lat;lon;timestamp;temperature;humidity
8832;DHT22;4452;50.756;4.472;2023-08-30T00:00:12;12.10;99.90
8832;DHT22;4452;50.756;4.472;2023-08-30T00:02:38;12.20;99.90
8832;DHT22;4452;50.756;4.472;2023-08-30T00:05:04;12.20;99.90
8832;DHT22;4452;50.756;4.472;2023-08-30T00:07:30;12.30;99.90
8832;DHT22;4452;50.756;4.472;2023-08-30T00:09:59;12.30;99.90
8832;DHT22;4452;50.756;4.472;2023-08-30T00:12:25;12.30;99.90
8832;DHT22;4452;50.756;4.472;2023-08-30T00:14:51;12.30;99.90
8832;DHT22;4452;50.756;4.472;2023-08-30T00:17:17;12.30;99.90
8832;DHT22;4452;50.756;4.472;2023-08-30T00:19:43;12.30;99.90
8832;DHT22;4452;50.756;4.472;2023-08-30T00:22:09;12.30;99.90
8832;DHT22;4452;50.756;4.472;2023-08-30T00:24:35;12.40;99.90
8832;DHT22;4452;50.756;4.472;2023-08-30T00:27:02;12.30;99.90
8832;DHT22;4452;50.756;4.472;2023-08-30T00:29:28;12.30;99.90
8832;DHT22;4452;50.756;4.472;2023-08-30T00:31:54;12.30;99.90
8832;DHT22;4452;50.756;4.472;2023-08-30T00:34:20;12.20;99.90
8832;DHT22;4452;50.756;4.472;2023-08-30T00:36:46;12.20;99.90
8832;DHT22;4452;50.756;4.472;2023-08-30T00:39:12;12.10;99.90
8832;DHT22;4452;50.756;4.472;2023-08-30T00:41:39;12.10;99.90
8832;DHT22;4452;50.756;4.472;2023-08-30T00:44:04;12.10;99.90
8832;DHT22;4452;50.756;4.472;2023-08-30T00:46:31;12.00;99.90
8832;DHT22;4452;50.756;4.472;2023-08-30T00:48:59;12.00;99.90
8832;DHT22;4452;50.756;4.472;2023-08-30T00:51:25;12.00;99.90
8832;DHT22;4452;50.756;4.472;2023-08-30T00:53:51;12.00;99.90
8832;DHT22;4452;50.756;4.472;2023-08-30T00:56:19;12.00;99.90
8832;DHT22;4452;50.756;4.472;2023-08-30T00:58:45;12.00;99.90
8832;DHT22;4452;50.756;4.472;2023-08-30T01:01:11;12.00;99.90
8832;DHT22;4452;50.756;4.472;2023-08-30T01:03:39;12.00;99.90
8832;DHT22;4452;50.756;4.472;2023-08-30T01:06:05;11.90;99.90
8832;DHT22;4452;50.756;4.472;2023-08-30T01:08:31;11.90;99.90
8832;DHT22;4452;50.756;4.472;2023-08-30T01:13:34;12.00;99.90
8832;DHT22;4452;50.756;4.472;2023-08-30T01:16:03;12.00;99.90
8832;DHT22;4452;50.756;4.472;2023-08-30T01:18:34;12.00;99.90
8832;DHT22;4452;50.756;4.472;2023-08-30T01:21:02;12.00;99.90
8832;DHT22;4452;50.756;4.472;2023-08-30T01:23:58;12.00;99.90
8832;DHT22;4452;50.756;4.472;2023-08-30T01:26:45;12.00;99.90
8832;DHT22;4452;50.756;4.472;2023-08-30T01:29:18;12.00;99.90
8832;DHT22;4452;50.756;4.472;2023-08-30T01:31:45;12.00;99.90
8832;DHT22;4452;50.756;4.472;2023-08-30T01:34:14;11.90;99.90
8832;DHT22;4452;50.756;4.472;2023-08-30T01:36:42;11.90;99.90
8832;DHT22;4452;50.756;4.472;2023-08-30T01:39:10;11.90;99.90
8832;DHT22;4452;50.756;4.472;2023-08-30T01:41:36;11.90;99.90
8832;DHT22;4452;50.756;4.472;2023-08-30T01:44:05;11.90;99.90
8832;DHT22;4452;50.756;4.472;2023-08-30T01:46:33;11.80;99.90
8832;DHT22;4452;50.756;4.472;2023-08-30T01:49:00;11.80;99.90
8832;DHT22;4452;50.756;4.472;2023-08-30T01:51:28;11.80;99.90
8832;DHT22;4452;50.756;4.472;2023-08-30T01:53:54;11.80;99.90
8832;DHT22;4452;50.756;4.472;2023-08-30T01:56:20;11.80;99.90
8832;DHT22;4452;50.756;4.472;2023-08-30T01:58:46;11.80;99.90
8832;DHT22;4452;50.756;4.472;2023-08-30T02:01:12;11.80;99.90
8832;DHT22;4452;50.756;4.472;2023-08-30T02:03:38;11.80;99.90
8832;DHT22;4452;50.756;4.472;2023-08-30T02:06:10;11.80;99.90
8832;DHT22;4452;50.756;4.472;2023-08-30T02:08:52;11.90;99.90
8832;DHT22;4452;50.756;4.472;2023-08-30T02:11:23;12.00;99.90
8832;DHT22;4452;50.756;4.472;2023-08-30T02:13:53;12.00;99.90
8832;DHT22;4452;50.756;4.472;2023-08-30T02:16:20;12.10;99.90
8832;DHT22;4452;50.756;4.472;2023-08-30T02:18:49;12.20;99.90
8832;DHT22;4452;50.756;4.472;2023-08-30T02:21:15;12.20;99.90
8832;DHT22;4452;50.756;4.472;2023-08-30T02:23:40;12.20;99.90
8832;DHT22;4452;50.756;4.472;2023-08-30T02:26:06;12.30;99.90
8832;DHT22;4452;50.756;4.472;2023-08-30T02:28:32;12.30;99.90
8832;DHT22;4452;50.756;4.472;2023-08-30T02:30:57;12.40;99.90
8832;DHT22;4452;50.756;4.472;2023-08-30T02:33:23;12.30;99.90
8832;DHT22;4452;50.756;4.472;2023-08-30T02:35:49;12.30;99.90
8832;DHT22;4452;50.756;4.472;2023-08-30T02:38:15;12.30;99.90
8832;DHT22;4452;50.756;4.472;2023-08-30T02:40:40;12.30;99.90
8832;DHT22;4452;50.756;4.472;2023-08-30T02:43:06;12.30;99.90
8832;DHT22;4452;50.756;4.472;2023-08-30T02:45:32;12.40;99.90
8832;DHT22;4452;50.756;4.472;2023-08-30T02:47:58;12.30;99.90
8832;DHT22;4452;50.756;4.472;2023-08-30T02:50:24;12.40;99.90
8832;DHT22;4452;50.756;4.472;2023-08-30T02:52:50;12.40;99.90
8832;DHT22;4452;50.756;4.472;2023-08-30T02:55:16;12.50;99.90
8832;DHT22;4452;50.756;4.472;2023-08-30T02:57:41;12.50;99.90
8832;DHT22;4452;50.756;4.472;2023-08-30T03:00:07;12.70;99.90
8832;DHT22;4452;50.756;4.472;2023-08-30T03:02:34;12.70;99.90
8832;DHT22;4452;50.756;4.472;2023-08-30T03:05:00;12.70;99.90
8832;DHT22;4452;50.756;4.472;2023-08-30T03:07:28;12.70;99.90
8832;DHT22;4452;50.756;4.472;2023-08-30T03:09:53;12.80;99.90
8832;DHT22;4452;50.756;4.472;2023-08-30T03:12:19;12.60;99.90
8832;DHT22;4452;50.756;4.472;2023-08-30T03:14:46;12.60;99.90
8832;DHT22;4452;50.756;4.472;2023-08-30T03:17:11;12.50;99.90
8832;DHT22;4452;50.756;4.472;2023-08-30T03:19:37;12.50;99.90
8832;DHT22;4452;50.756;4.472;2023-08-30T03:22:03;12.60;99.90
8832;DHT22;4452;50.756;4.472;2023-08-30T03:24:29;12.60;99.90
8832;DHT22;4452;50.756;4.472;2023-08-30T03:26:54;12.60;99.90
8832;DHT22;4452;50.756;4.472;2023-08-30T03:29:20;12.60;99.90
8832;DHT22;4452;50.756;4.472;2023-08-30T03:31:46;12.60;99.90
8832;DHT22;4452;50.756;4.472;2023-08-30T03:34:12;12.50;99.90
8832;DHT22;4452;50.756;4.472;2023-08-30T03:36:40;12.60;99.90
8832;DHT22;4452;50.756;4.472;2023-08-30T03:39:08;12.60;99.90
8832;DHT22;4452;50.756;4.472;2023-08-30T03:41:34;12.60;99.90
8832;DHT22;4452;50.756;4.472;2023-08-30T03:44:00;12.60;99.90
8832;DHT22;4452;50.756;4.472;2023-08-30T03:46:25;12.70;99.90
8832;DHT22;4452;50.756;4.472;2023-08-30T03:48:51;12.70;99.90
8832;DHT22;4452;50.756;4.472;2023-08-30T03:51:17;12.80;99.90
8832;DHT22;4452;50.756;4.472;2023-08-30T03:53:43;12.80;99.90
8832;DHT22;4452;50.756;4.472;2023-08-30T03:56:09;12.80;99.90
8832;DHT22;4452;50.756;4.472;2023-08-30T03:58:34;12.80;99.90
8832;DHT22;4452;50.756;4.472;2023-08-30T04:01:00;12.80;99.90
8832;DHT22;4452;50.756;4.472;2023-08-30T04:03:26;12.80;99.90
8832;DHT22;4452;50.756;4.472;2023-08-30T04:05:55;12.80;99.90
8832;DHT22;4452;50.756;4.472;2023-08-30T04:08:22;12.80;99.90
8832;DHT22;4452;50.756;4.472;2023-08-30T04:10:48;12.80;99.90
8832;DHT22;4452;50.756;4.472;2023-08-30T04:13:14;12.80;99.90
8832;DHT22;4452;50.756;4.472;2023-08-30T04:15:41;12.90;99.90
8832;DHT22;4452;50.756;4.472;2023-08-30T04:18:07;12.80;99.90
8832;DHT22;4452;50.756;4.472;2023-08-30T04:20:33;12.80;99.90
8832;DHT22;4452;50.756;4.472;2023-08-30T04:23:00;12.80;99.90
8832;DHT22;4452;50.756;4.472;2023-08-30T04:25:29;12.80;99.90
8832;DHT22;4452;50.756;4.472;2023-08-30T04:27:55;12.80;99.90
8832;DHT22;4452;50.756;4.472;2023-08-30T04:30:21;12.80;99.90
8832;DHT22;4452;50.756;4.472;2023-08-30T04:32:47;12.70;99.90
8832;DHT22;4452;50.756;4.472;2023-08-30T04:35:12;12.70;99.90
8832;DHT22;4452;50.756;4.472;2023-08-30T04:37:38;12.70;99.90
8832;DHT22;4452;50.756;4.472;2023-08-30T04:40:06;12.80;99.90
8832;DHT22;4452;50.756;4.472;2023-08-30T04:42:32;12.80;99.90
8832;DHT22;4452;50.756;4.472;2023-08-30T04:44:58;12.70;99.90
8832;DHT22;4452;50.756;4.472;2023-08-30T04:47:27;12.80;99.90
8832;DHT22;4452;50.756;4.472;2023-08-30T04:49:53;12.80;99.90
8832;DHT22;4452;50.756;4.472;2023-08-30T04:52:19;12.90;99.90
8832;DHT22;4452;50.756;4.472;2023-08-30T04:54:45;12.90;99.90
8832;DHT22;4452;50.756;4.472;2023-08-30T04:57:12;12.90;99.90
8832;DHT22;4452;50.756;4.472;2023-08-30T04:59:40;12.90;99.90
8832;DHT22;4452;50.756;4.472;2023-08-30T05:02:06;12.90;99.90
8832;DHT22;4452;50.756;4.472;2023-08-30T05:04:32;12.80;99.90
8832;DHT22;4452;50.756;4.472;2023-08-30T05:06:57;12.80;99.90
8832;DHT22;4452;50.756;4.472;2023-08-30T05:09:23;12.90;99.90
8832;DHT22;4452;50.756;4.472;2023-08-30T05:11:53;12.80;99.90
8832;DHT22;4452;50.756;4.472;2023-08-30T05:14:20;12.90;99.90
8832;DHT22;4452;50.756;4.472;2023-08-30T05:16:46;12.90;99.90
8832;DHT22;4452;50.756;4.472;2023-08-30T05:19:11;12.90;99.90
8832;DHT22;4452;50.756;4.472;2023-08-30T05:21:37;12.90;99.90
8832;DHT22;4452;50.756;4.472;2023-08-30T05:24:03;12.90;99.90
8832;DHT22;4452;50.756;4.472;2023-08-30T05:26:31;12.90;99.90
8832;DHT22;4452;50.756;4.472;2023-08-30T05:28:57;12.90;99.90
8832;DHT22;4452;50.756;4.472;2023-08-30T05:31:22;12.90;99.90
8832;DHT22;4452;50.756;4.472;2023-08-30T05:33:48;12.90;99.90
8832;DHT22;4452;50.756;4.472;2023-08-30T05:36:14;12.90;99.90
8832;DHT22;4452;50.756;4.472;2023-08-30T05:38:39;12.90;99.90
8832;DHT22;4452;50.756;4.472;2023-08-30T05:41:06;12.80;99.90
8832;DHT22;4452;50.756;4.472;2023-08-30T05:43:32;12.90;99.90
8832;DHT22;4452;50.756;4.472;2023-08-30T05:45:57;12.80;99.90
8832;DHT22;4452;50.756;4.472;2023-08-30T05:48:30;12.80;99.90
8832;DHT22;4452;50.756;4.472;2023-08-30T05:50:57;12.80;99.90
8832;DHT22;4452;50.756;4.472;2023-08-30T05:53:23;12.80;99.90
8832;DHT22;4452;50.756;4.472;2023-08-30T05:55:49;12.80;99.90
8832;DHT22;4452;50.756;4.472;2023-08-30T05:58:15;13.20;99.90
8832;DHT22;4452;50.756;4.472;2023-08-30T06:00:44;12.80;99.90
8832;DHT22;4452;50.756;4.472;2023-08-30T06:03:10;12.80;99.90
8832;DHT22;4452;50.756;4.472;2023-08-30T06:05:36;12.90;99.90
8832;DHT22;4452;50.756;4.472;2023-08-30T06:08:02;12.90;99.90
8832;DHT22;4452;50.756;4.472;2023-08-30T06:10:28;12.90;99.90
8832;DHT22;4452;50.756;4.472;2023-08-30T06:12:54;13.00;99.90
8832;DHT22;4452;50.756;4.472;2023-08-30T06:15:19;13.00;99.90
8832;DHT22;4452;50.756;4.472;2023-08-30T06:17:45;13.10;99.90
8832;DHT22;4452;50.756;4.472;2023-08-30T06:20:12;13.20;99.90
8832;DHT22;4452;50.756;4.472;2023-08-30T06:22:38;13.20;99.90
8832;DHT22;4452;50.756;4.472;2023-08-30T06:25:04;13.20;99.90
8832;DHT22;4452;50.756;4.472;2023-08-30T06:27:33;13.30;99.90
8832;DHT22;4452;50.756;4.472;2023-08-30T06:29:59;13.40;99.90
8832;DHT22;4452;50.756;4.472;2023-08-30T06:32:25;13.40;99.90
8832;DHT22;4452;50.756;4.472;2023-08-30T06:34:50;13.40;99.90
8832;DHT22;4452;50.756;4.472;2023-08-30T06:37:16;13.40;99.90
8832;DHT22;4452;50.756;4.472;2023-08-30T06:39:42;13.50;99.90
8832;DHT22;4452;50.756;4.472;2023-08-30T06:42:08;13.60;99.90
8832;DHT22;4452;50.756;4.472;2023-08-30T06:44:33;13.60;99.90
8832;DHT22;4452;50.756;4.472;2023-08-30T06:46:59;13.80;99.90
8832;DHT22;4452;50.756;4.472;2023-08-30T06:49:25;13.60;99.90
8832;DHT22;4452;50.756;4.472;2023-08-30T06:51:50;13.50;99.90
8832;DHT22;4452;50.756;4.472;2023-08-30T06:54:16;13.50;99.90
8832;DHT22;4452;50.756;4.472;2023-08-30T06:56:56;13.50;99.90
8832;DHT22;4452;50.756;4.472;2023-08-30T06:59:22;13.50;99.90
8832;DHT22;4452;50.756;4.472;2023-08-30T07:01:47;13.40;99.90
8832;DHT22;4452;50.756;4.472;2023-08-30T07:04:13;13.40;99.90
8832;DHT22;4452;50.756;4.472;2023-08-30T07:06:39;13.50;99.90
8832;DHT22;4452;50.756;4.472;2023-08-30T07:09:04;13.40;99.90
8832;DHT22;4452;50.756;4.472;2023-08-30T07:11:31;13.40;99.90
8832;DHT22;4452;50.756;4.472;2023-08-30T07:13:57;13.50;99.90
8832;DHT22;4452;50.756;4.472;2023-08-30T07:16:23;13.40;99.90
8832;DHT22;4452;50.756;4.472;2023-08-30T07:18:48;13.50;99.90
8832;DHT22;4452;50.756;4.472;2023-08-30T07:21:15;13.50;99.90
8832;DHT22;4452;50.756;4.472;2023-08-30T07:23:41;13.60;99.90
8832;DHT22;4452;50.756;4.472;2023-08-30T07:26:06;13.50;99.90
8832;DHT22;4452;50.756;4.472;2023-08-30T07:28:32;13.20;99.90
8832;DHT22;4452;50.756;4.472;2023-08-30T07:31:02;13.50;99.90
8832;DHT22;4452;50.756;4.472;2023-08-30T07:33:28;13.60;99.90
8832;DHT22;4452;50.756;4.472;2023-08-30T07:35:54;13.60;99.90
8832;DHT22;4452;50.756;4.472;2023-08-30T07:38:20;13.60;99.90
8832;DHT22;4452;50.756;4.472;2023-08-30T07:40:45;13.60;99.90
8832;DHT22;4452;50.756;4.472;2023-08-30T07:43:11;13.70;99.90
8832;DHT22;4452;50.756;4.472;2023-08-30T07:45:37;13.70;99.90
8832;DHT22;4452;50.756;4.472;2023-08-30T07:48:03;13.70;99.90
8832;DHT22;4452;50.756;4.472;2023-08-30T07:50:28;13.80;99.90
8832;DHT22;4452;50.756;4.472;2023-08-30T07:52:54;13.80;99.90
8832;DHT22;4452;50.756;4.472;2023-08-30T07:55:20;13.80;99.90
8832;DHT22;4452;50.756;4.472;2023-08-30T07:57:45;13.80;99.90
8832;DHT22;4452;50.756;4.472;2023-08-30T08:00:12;13.80;99.90
8832;DHT22;4452;50.756;4.472;2023-08-30T08:02:39;13.80;99.90
8832;DHT22;4452;50.756;4.472;2023-08-30T08:05:04;13.80;99.90
8832;DHT22;4452;50.756;4.472;2023-08-30T08:07:30;13.80;99.90
8832;DHT22;4452;50.756;4.472;2023-08-30T08:09:57;13.80;99.90
8832;DHT22;4452;50.756;4.472;2023-08-30T08:12:22;13.90;99.90
8832;DHT22;4452;50.756;4.472;2023-08-30T08:14:48;14.00;99.90
8832;DHT22;4452;50.756;4.472;2023-08-30T08:17:14;13.90;99.90
8832;DHT22;4452;50.756;4.472;2023-08-30T08:19:39;14.00;99.90
8832;DHT22;4452;50.756;4.472;2023-08-30T08:22:05;14.00;99.90
8832;DHT22;4452;50.756;4.472;2023-08-30T08:24:31;14.00;99.90
8832;DHT22;4452;50.756;4.472;2023-08-30T08:26:57;14.10;99.90
8832;DHT22;4452;50.756;4.472;2023-08-30T08:29:23;14.10;99.90
8832;DHT22;4452;50.756;4.472;2023-08-30T08:31:49;14.10;99.90
8832;DHT22;4452;50.756;4.472;2023-08-30T08:34:14;14.20;99.90
8832;DHT22;4452;50.756;4.472;2023-08-30T08:36:41;14.20;99.90
8832;DHT22;4452;50.756;4.472;2023-08-30T08:39:07;14.30;99.90
8832;DHT22;4452;50.756;4.472;2023-08-30T08:44:05;14.20;99.90
8832;DHT22;4452;50.756;4.472;2023-08-30T08:46:31;14.20;99.90
8832;DHT22;4452;50.756;4.472;2023-08-30T08:48:58;14.30;99.90
8832;DHT22;4452;50.756;4.472;2023-08-30T08:51:28;14.30;99.90
8832;DHT22;4452;50.756;4.472;2023-08-30T08:53:58;14.40;99.90
8832;DHT22;4452;50.756;4.472;2023-08-30T08:56:27;14.40;99.90
8832;DHT22;4452;50.756;4.472;2023-08-30T08:58:54;14.50;99.90
8832;DHT22;4452;50.756;4.472;2023-08-30T09:01:20;14.50;99.90
8832;DHT22;4452;50.756;4.472;2023-08-30T09:03:46;14.50;99.90
8832;DHT22;4452;50.756;4.472;2023-08-30T09:06:13;14.50;99.90
8832;DHT22;4452;50.756;4.472;2023-08-30T09:08:40;14.50;99.90
8832;DHT22;4452;50.756;4.472;2023-08-30T09:11:06;14.60;99.90
8832;DHT22;4452;50.756;4.472;2023-08-30T09:13:31;14.50;99.90
8832;DHT22;4452;50.756;4.472;2023-08-30T09:15:57;14.70;99.90
8832;DHT22;4452;50.756;4.472;2023-08-30T09:18:23;14.70;99.90
8832;DHT22;4452;50.756;4.472;2023-08-30T09:20:53;14.80;99.90
8832;DHT22;4452;50.756;4.472;2023-08-30T09:23:20;14.90;99.90
8832;DHT22;4452;50.756;4.472;2023-08-30T09:25:46;15.10;99.90
8832;DHT22;4452;50.756;4.472;2023-08-30T09:28:12;15.20;99.90
8832;DHT22;4452;50.756;4.472;2023-08-30T09:30:39;15.30;99.90
8832;DHT22;4452;50.756;4.472;2023-08-30T09:33:05;15.40;99.90
8832;DHT22;4452;50.756;4.472;2023-08-30T09:35:32;15.40;99.90
8832;DHT22;4452;50.756;4.472;2023-08-30T09:37:57;15.40;99.90
8832;DHT22;4452;50.756;4.472;2023-08-30T09:40:23;15.30;99.90
8832;DHT22;4452;50.756;4.472;2023-08-30T09:42:49;15.40;99.90
8832;DHT22;4452;50.756;4.472;2023-08-30T09:45:19;15.70;99.90
8832;DHT22;4452;50.756;4.472;2023-08-30T09:47:54;15.70;99.90
8832;DHT22;4452;50.756;4.472;2023-08-30T09:50:20;15.80;99.90
8832;DHT22;4452;50.756;4.472;2023-08-30T09:52:47;16.00;99.90
8832;DHT22;4452;50.756;4.472;2023-08-30T09:55:18;16.30;99.90
8832;DHT22;4452;50.756;4.472;2023-08-30T09:57:44;15.90;99.90
8832;DHT22;4452;50.756;4.472;2023-08-30T10:00:11;15.80;99.90
8832;DHT22;4452;50.756;4.472;2023-08-30T10:02:43;16.00;99.90
8832;DHT22;4452;50.756;4.472;2023-08-30T10:05:12;16.00;99.90
8832;DHT22;4452;50.756;4.472;2023-08-30T10:07:39;15.80;99.90
8832;DHT22;4452;50.756;4.472;2023-08-30T10:10:05;16.00;99.90
8832;DHT22;4452;50.756;4.472;2023-08-30T10:12:34;15.90;99.90
8832;DHT22;4452;50.756;4.472;2023-08-30T10:15:00;15.90;99.90
8832;DHT22;4452;50.756;4.472;2023-08-30T10:17:32;15.70;99.90
8832;DHT22;4452;50.756;4.472;2023-08-30T10:20:04;15.60;99.90
8832;DHT22;4452;50.756;4.472;2023-08-30T10:22:36;15.70;99.90
8832;DHT22;4452;50.756;4.472;2023-08-30T10:25:06;15.80;99.90
8832;DHT22;4452;50.756;4.472;2023-08-30T10:27:35;15.70;99.90
8832;DHT22;4452;50.756;4.472;2023-08-30T10:30:04;15.60;99.90
8832;DHT22;4452;50.756;4.472;2023-08-30T10:32:32;15.40;99.90
8832;DHT22;4452;50.756;4.472;2023-08-30T10:35:01;15.40;99.90
8832;DHT22;4452;50.756;4.472;2023-08-30T10:37:28;15.40;99.90
8832;DHT22;4452;50.756;4.472;2023-08-30T10:40:00;15.50;99.90
8832;DHT22;4452;50.756;4.472;2023-08-30T10:42:29;15.60;99.90
8832;DHT22;4452;50.756;4.472;2023-08-30T10:45:07;15.70;99.90
8832;DHT22;4452;50.756;4.472;2023-08-30T10:47:37;15.90;99.90
8832;DHT22;4452;50.756;4.472;2023-08-30T10:50:08;16.00;99.90
8832;DHT22;4452;50.756;4.472;2023-08-30T10:52:34;15.90;99.90
8832;DHT22;4452;50.756;4.472;2023-08-30T10:57:37;16.10;99.90
8832;DHT22;4452;50.756;4.472;2023-08-30T11:02:44;16.60;99.90
8832;DHT22;4452;50.756;4.472;2023-08-30T11:05:11;16.60;99.90
8832;DHT22;4452;50.756;4.472;2023-08-30T11:07:37;16.70;99.90
8832;DHT22;4452;50.756;4.472;2023-08-30T11:10:07;16.60;99.90
8832;DHT22;4452;50.756;4.472;2023-08-30T11:12:34;16.60;99.90
8832;DHT22;4452;50.756;4.472;2023-08-30T11:15:01;16.60;99.90
8832;DHT22;4452;50.756;4.472;2023-08-30T11:17:28;16.70;99.90
8832;DHT22;4452;50.756;4.472;2023-08-30T11:20:11;16.80;99.90
8832;DHT22;4452;50.756;4.472;2023-08-30T11:22:48;17.10;99.90
8832;DHT22;4452;50.756;4.472;2023-08-30T11:25:14;17.30;99.90
8832;DHT22;4452;50.756;4.472;2023-08-30T11:27:41;17.60;99.90
8832;DHT22;4452;50.756;4.472;2023-08-30T11:30:08;17.50;99.90
8832;DHT22;4452;50.756;4.472;2023-08-30T11:32:38;17.40;99.90
8832;DHT22;4452;50.756;4.472;2023-08-30T11:35:05;17.10;99.90
8832;DHT22;4452;50.756;4.472;2023-08-30T11:37:31;17.30;99.90
8832;DHT22;4452;50.756;4.472;2023-08-30T11:39:57;17.10;99.90
8832;DHT22;4452;50.756;4.472;2023-08-30T11:42:23;17.20;99.90
8832;DHT22;4452;50.756;4.472;2023-08-30T11:44:50;17.40;99.90
8832;DHT22;4452;50.756;4.472;2023-08-30T11:47:24;17.90;99.90
8832;DHT22;4452;50.756;4.472;2023-08-30T11:49:50;17.70;99.90
8832;DHT22;4452;50.756;4.472;2023-08-30T11:52:18;17.60;99.90
8832;DHT22;4452;50.756;4.472;2023-08-30T11:54:49;17.30;99.90
8832;DHT22;4452;50.756;4.472;2023-08-30T11:57:15;17.20;99.90
8832;DHT22;4452;50.756;4.472;2023-08-30T11:59:41;17.20;99.90
8832;DHT22;4452;50.756;4.472;2023-08-30T12:02:07;17.20;99.90
8832;DHT22;4452;50.756;4.472;2023-08-30T12:04:44;17.50;99.90
8832;DHT22;4452;50.756;4.472;2023-08-30T12:07:26;17.70;99.90
8832;DHT22;4452;50.756;4.472;2023-08-30T12:09:52;17.80;99.90
8832;DHT22;4452;50.756;4.472;2023-08-30T12:12:29;18.40;99.90
8832;DHT22;4452;50.756;4.472;2023-08-30T12:14:55;18.90;99.90
8832;DHT22;4452;50.756;4.472;2023-08-30T12:17:21;19.20;99.90
8832;DHT22;4452;50.756;4.472;2023-08-30T12:19:55;19.80;99.90
8832;DHT22;4452;50.756;4.472;2023-08-30T12:22:21;19.80;99.90
8832;DHT22;4452;50.756;4.472;2023-08-30T12:24:47;19.30;99.90
8832;DHT22;4452;50.756;4.472;2023-08-30T12:27:13;18.80;99.90
8832;DHT22;4452;50.756;4.472;2023-08-30T12:29:39;18.60;99.90
8832;DHT22;4452;50.756;4.472;2023-08-30T12:32:06;18.30;99.90
8832;DHT22;4452;50.756;4.472;2023-08-30T12:34:32;18.30;99.90
8832;DHT22;4452;50.756;4.472;2023-08-30T12:36:58;18.70;99.90
8832;DHT22;4452;50.756;4.472;2023-08-30T12:39:24;18.90;99.90
8832;DHT22;4452;50.756;4.472;2023-08-30T12:41:49;19.20;99.90
8832;DHT22;4452;50.756;4.472;2023-08-30T12:44:15;19.00;99.90
8832;DHT22;4452;50.756;4.472;2023-08-30T12:46:41;19.10;99.90
8832;DHT22;4452;50.756;4.472;2023-08-30T12:49:06;19.00;99.90
8832;DHT22;4452;50.756;4.472;2023-08-30T12:51:33;18.80;99.90
8832;DHT22;4452;50.756;4.472;2023-08-30T12:53:58;19.00;99.90
8832;DHT22;4452;50.756;4.472;2023-08-30T12:56:24;19.10;99.90
8832;DHT22;4452;50.756;4.472;2023-08-30T12:58:50;19.50;99.90
8832;DHT22;4452;50.756;4.472;2023-08-30T13:01:16;20.20;99.90
8832;DHT22;4452;50.756;4.472;2023-08-30T13:03:42;19.50;99.90
8832;DHT22;4452;50.756;4.472;2023-08-30T13:06:08;19.80;99.90
8832;DHT22;4452;50.756;4.472;2023-08-30T13:08:33;20.10;99.90
8832;DHT22;4452;50.756;4.472;2023-08-30T13:11:00;20.70;99.90
8832;DHT22;4452;50.756;4.472;2023-08-30T13:13:25;21.00;99.90
8832;DHT22;4452;50.756;4.472;2023-08-30T13:15:51;20.60;99.90
8832;DHT22;4452;50.756;4.472;2023-08-30T13:18:17;20.70;99.90
8832;DHT22;4452;50.756;4.472;2023-08-30T13:20:43;21.10;99.90
8832;DHT22;4452;50.756;4.472;2023-08-30T13:23:09;21.30;99.90
8832;DHT22;4452;50.756;4.472;2023-08-30T13:25:39;21.20;99.90
8832;DHT22;4452;50.756;4.472;2023-08-30T13:28:05;21.30;99.90
8832;DHT22;4452;50.756;4.472;2023-08-30T13:30:31;21.30;99.90
8832;DHT22;4452;50.756;4.472;2023-08-30T13:32:57;21.00;99.90
8832;DHT22;4452;50.756;4.472;2023-08-30T13:35:22;21.10;99.90
8832;DHT22;4452;50.756;4.472;2023-08-30T13:37:48;20.80;99.90
8832;DHT22;4452;50.756;4.472;2023-08-30T13:40:15;21.70;99.90
8832;DHT22;4452;50.756;4.472;2023-08-30T13:42:41;21.40;99.90
8832;DHT22;4452;50.756;4.472;2023-08-30T13:45:07;20.90;99.90
8832;DHT22;4452;50.756;4.472;2023-08-30T13:47:35;20.60;99.90
8832;DHT22;4452;50.756;4.472;2023-08-30T13:50:01;20.70;99.90
8832;DHT22;4452;50.756;4.472;2023-08-30T13:52:26;20.80;99.90
8832;DHT22;4452;50.756;4.472;2023-08-30T13:54:54;20.20;99.90
8832;DHT22;4452;50.756;4.472;2023-08-30T13:57:20;20.60;99.90
8832;DHT22;4452;50.756;4.472;2023-08-30T13:59:47;21.00;99.90
8832;DHT22;4452;50.756;4.472;2023-08-30T14:02:12;21.20;99.90
8832;DHT22;4452;50.756;4.472;2023-08-30T14:04:38;21.50;99.90
8832;DHT22;4452;50.756;4.472;2023-08-30T14:07:04;21.50;99.90
8832;DHT22;4452;50.756;4.472;2023-08-30T14:09:30;21.50;99.90
8832;DHT22;4452;50.756;4.472;2023-08-30T14:11:55;21.20;99.90
8832;DHT22;4452;50.756;4.472;2023-08-30T14:14:21;20.60;99.90
8832;DHT22;4452;50.756;4.472;2023-08-30T14:16:47;20.50;99.90
8832;DHT22;4452;50.756;4.472;2023-08-30T14:19:14;20.90;99.90
8832;DHT22;4452;50.756;4.472;2023-08-30T14:21:40;20.20;99.90
8832;DHT22;4452;50.756;4.472;2023-08-30T14:24:06;19.70;99.90
8832;DHT22;4452;50.756;4.472;2023-08-30T14:26:32;20.10;99.90
8832;DHT22;4452;50.756;4.472;2023-08-30T14:28:57;19.80;99.90
8832;DHT22;4452;50.756;4.472;2023-08-30T14:31:23;19.80;99.90
8832;DHT22;4452;50.756;4.472;2023-08-30T14:33:49;19.10;99.90
8832;DHT22;4452;50.756;4.472;2023-08-30T14:36:15;18.70;99.90
8832;DHT22;4452;50.756;4.472;2023-08-30T14:38:41;19.00;99.90
8832;DHT22;4452;50.756;4.472;2023-08-30T14:41:07;19.10;99.90
8832;DHT22;4452;50.756;4.472;2023-08-30T14:43:33;18.90;99.90
8832;DHT22;4452;50.756;4.472;2023-08-30T14:46:04;18.60;99.90
8832;DHT22;4452;50.756;4.472;2023-08-30T14:48:31;18.50;99.90
8832;DHT22;4452;50.756;4.472;2023-08-30T14:50:58;18.60;99.90
8832;DHT22;4452;50.756;4.472;2023-08-30T14:53:24;18.50;99.90
8832;DHT22;4452;50.756;4.472;2023-08-30T14:55:50;18.40;99.90
8832;DHT22;4452;50.756;4.472;2023-08-30T14:58:16;18.30;99.90
8832;DHT22;4452;50.756;4.472;2023-08-30T15:00:42;18.60;99.90
8832;DHT22;4452;50.756;4.472;2023-08-30T15:03:07;18.60;99.90
8832;DHT22;4452;50.756;4.472;2023-08-30T15:05:33;18.70;99.90
8832;DHT22;4452;50.756;4.472;2023-08-30T15:07:59;19.00;99.90
8832;DHT22;4452;50.756;4.472;2023-08-30T15:10:25;19.90;99.90
8832;DHT22;4452;50.756;4.472;2023-08-30T15:12:51;21.10;99.90
8832;DHT22;4452;50.756;4.472;2023-08-30T15:15:17;22.00;99.90
8832;DHT22;4452;50.756;4.472;2023-08-30T15:17:47;22.50;99.90
8832;DHT22;4452;50.756;4.472;2023-08-30T15:20:12;20.70;99.90
8832;DHT22;4452;50.756;4.472;2023-08-30T15:22:39;19.80;99.90
8832;DHT22;4452;50.756;4.472;2023-08-30T15:25:05;19.20;99.90
8832;DHT22;4452;50.756;4.472;2023-08-30T15:27:34;19.10;99.90
8832;DHT22;4452;50.756;4.472;2023-08-30T15:29:59;19.40;99.90
8832;DHT22;4452;50.756;4.472;2023-08-30T15:32:25;20.00;99.90
8832;DHT22;4452;50.756;4.472;2023-08-30T15:34:51;19.80;99.90
8832;DHT22;4452;50.756;4.472;2023-08-30T15:37:17;19.90;99.90
8832;DHT22;4452;50.756;4.472;2023-08-30T15:39:43;19.30;99.90
8832;DHT22;4452;50.756;4.472;2023-08-30T15:42:09;19.20;99.90
8832;DHT22;4452;50.756;4.472;2023-08-30T15:44:35;19.60;99.90
8832;DHT22;4452;50.756;4.472;2023-08-30T15:47:01;20.60;99.90
8832;DHT22;4452;50.756;4.472;2023-08-30T15:49:26;22.00;99.90
8832;DHT22;4452;50.756;4.472;2023-08-30T15:51:52;22.90;99.90
8832;DHT22;4452;50.756;4.472;2023-08-30T15:54:17;22.70;99.90
8832;DHT22;4452;50.756;4.472;2023-08-30T15:56:43;21.90;99.90
8832;DHT22;4452;50.756;4.472;2023-08-30T15:59:10;21.20;99.90
8832;DHT22;4452;50.756;4.472;2023-08-30T16:01:37;21.60;99.90
8832;DHT22;4452;50.756;4.472;2023-08-30T16:04:03;22.20;99.90
8832;DHT22;4452;50.756;4.472;2023-08-30T16:06:29;22.70;99.90
8832;DHT22;4452;50.756;4.472;2023-08-30T16:08:55;22.40;99.90